Latest Coastal Weather Observations for Orbost

IDV60701

Issued at 11:11 am EDT Saturday 21 January 2017 (issued every 10 minutes, with the page automatically refreshed every 10 minutes)

About coastal observations | Map of coastal stations | Coastal observations for VIC | Marine services | Other Formats
Station Details ID: 084145 Name: ORBOST Lat: -37.69 Lon: 148.47 Height: 62.65 m
Data from the previous 72 hours. | See also: Recent months at Orbost
Date/Time
EDT
Temp
°C
Wind Pressure Rain since
9am
mm
Weather Cloud Vis
km
Sea
Height
m
Swell
Dir  Spd
kts
Gust
kts
hPa Trend Height
m
Period
s
Dir
21/11:00am 17.5 W 9 13 1014.5 - 0.0 - - - - - - -
21/10:30am 17.3 WSW 8 13 1014.2 - 0.0 - - - - - - -
21/10:00am 16.9 W 8 15 1014.0 - 0.0 - - - - - - -
21/09:30am 16.3 WNW 8 13 1013.7 - 0.0 - - - - - - -
21/09:00am 15.9 WNW 9 14 1013.6 - 1.4 - - - - - - -
21/08:30am 15.3 WNW 8 12 1013.3 - 1.4 - - - - - - -
21/08:00am 15.0 WNW 8 12 1012.7 - 1.4 - - - - - - -
21/07:30am 14.9 WNW 9 15 1012.1 - 1.4 - - - - - - -
21/07:00am 14.7 WNW 7 13 1011.6 - 1.4 - - - - - - -
21/06:30am 14.6 W 7 11 1011.1 - 1.4 - - - - - - -
21/06:00am 14.7 WNW 8 13 1010.4 - 1.4 - - - - - - -
21/05:30am 14.7 WNW 8 13 1010.0 - 1.4 - - - - - - -
21/05:00am 14.8 W 7 12 1009.5 - 1.4 - - - - - - -
21/04:30am 14.8 WNW 7 11 1008.8 - 1.4 - - - - - - -
21/04:00am 14.9 W 8 14 1008.4 - 1.4 - - - - - - -
21/03:30am 15.0 W 8 13 1008.0 - 1.4 - - - - - - -
21/03:00am 15.2 W 8 14 1007.7 - 1.4 - - - - - - -
21/02:30am 15.3 W 8 13 1007.5 - 1.4 - - - - - - -
21/02:00am 15.6 W 7 12 1007.4 - 1.4 - - - - - - -
21/01:30am 15.7 WNW 6 9 1007.1 - 1.4 - - - - - - -
21/01:00am 15.9 W 6 12 1006.8 - 1.4 - - - - - - -
21/12:30am 15.8 W 7 11 1006.8 - 1.4 - - - - - - -
21/12:00am 16.1 W 7 12 1006.8 - 1.4 - - - - - - -
 
Date/Time
EDT
Temp
°C
Wind Pressure Rain since
9am
mm
Weather Cloud Vis
km
Sea
Height
m
Swell
Dir  Spd
kts
Gust
kts
hPa Trend Height
m
Period
s
Dir
20/11:30pm 16.6 WSW 9 17 1006.6 - 1.4 - - - - - - -
20/11:00pm 17.1 WSW 9 14 1006.5 - 1.4 - - - - - - -
20/10:30pm 17.4 WSW 11 18 1006.2 - 1.4 - - - - - - -
20/10:00pm 17.6 WSW 12 18 1005.7 - 1.4 - - - - - - -
20/09:30pm 17.6 WSW 12 18 1005.3 - 1.4 - - - - - - -
20/09:00pm 17.6 WSW 13 22 1004.8 - 1.4 - - - - - - -
20/08:30pm 18.2 WSW 16 27 1004.2 - 1.4 - - - - - - -
20/08:00pm 18.5 SW 17 28 1003.3 - 1.4 - - - - - - -
20/07:54pm 18.6 WSW 18 28 1003.1 - 1.4 - - - - - - -
20/07:30pm 18.5 SW 17 26 1002.5 - 1.4 - - - - - - -
20/07:22pm 18.4 SW 15 28 1002.0 - 1.4 - - - - - - -
20/07:00pm 18.3 WSW 13 22 1001.3 - 1.4 - - - - - - -
20/06:30pm 18.5 WSW 13 20 1000.3 - 1.4 - - - - - - -
20/06:00pm 19.3 WSW 14 20 999.5 - 1.4 - - - - - - -
20/05:30pm 20.3 W 15 26 998.5 - 1.4 - - - - - - -
20/05:29pm 20.3 W 15 26 998.4 - 1.4 - - - - - - -
20/05:00pm 20.6 W 18 27 997.6 - 1.4 - - - - - - -
20/04:43pm 20.9 W 19 29 997.4 - 1.4 - - - - - - -
20/04:30pm 22.1 W 22 32 997.2 - 1.4 - - - - - - -
20/04:00pm 22.4 W 24 39 996.3 - 1.4 - - - - - - -
20/03:30pm 22.6 WSW 21 35 995.5 - 1.4 - - - - - - -
20/03:02pm 23.1 WSW 19 30 994.6 - 1.4 - - - - - - -
20/03:00pm 23.3 WSW 19 28 994.6 - 1.4 - - - - - - -
20/02:30pm 23.7 WSW 18 29 994.1 - 1.4 - - - - - - -
20/02:00pm 23.3 W 15 27 993.5 - 1.4 - - - - - - -
20/01:35pm 21.9 WSW 15 26 993.1 - 1.4 - - - - - - -
20/01:30pm 21.9 WSW 13 26 993.1 - 1.4 - - - - - - -
20/01:00pm 21.0 W 7 15 992.7 - 1.4 - - - - - - -
20/12:30pm 20.3 WNW 4 6 992.4 - 1.4 - - - - - - -
20/12:00pm 20.2 WNW 4 6 992.4 - 1.4 - - - - - - -
20/11:30am 19.5 W 3 5 992.1 - 1.4 - - - - - - -
20/11:00am 19.2 WSW 4 7 991.9 - 1.4 - - - - - - -
20/10:30am 19.9 NNW 1 3 990.5 - 0.8 - - - - - - -
20/10:00am 19.5 NE 3 6 990.9 - 0.2 - - - - - - -
20/09:30am 18.2 NNE 4 7 991.9 - 0.2 - - - - - - -
20/09:00am 17.4 NE 5 8 993.0 - 2.8 - - - - - - -
20/08:30am 17.4 NE 3 5 994.6 - 2.8 - - - - - - -
20/08:00am 17.5 N 4 6 996.0 - 2.4 - - - - - - -
20/07:30am 17.5 NNW 6 8 997.4 - 1.4 - - - - - - -
20/07:00am 17.7 NNW 5 8 997.5 - 0.8 - - - - - - -
20/06:30am 18.1 NNW 6 9 997.5 - 0.2 - - - - - - -
20/06:00am 17.8 WNW 6 11 997.5 - 0.0 - - - - - - -
20/05:30am 17.6 NW 6 11 996.8 - 0.0 - - - - - - -
20/05:00am 18.9 CALM 0 1 995.1 - 0.0 - - - - - - -
20/04:30am 19.7 E 1 3 994.6 - 0.0 - - - - - - -
20/04:00am 20.3 SSE 1 2 995.9 - 0.0 - - - - - - -
20/03:30am 21.3 NNE 3 6 996.2 - 0.0 - - - - - - -
20/03:00am 20.9 NNE 4 6 997.1 - 0.0 - - - - - - -
20/02:30am 19.7 ENE 2 3 998.2 - 0.0 - - - - - - -
20/02:00am 20.8 NNE 3 7 998.5 - 0.0 - - - - - - -
20/01:30am 20.6 ENE 3 11 998.6 - 0.0 - - - - - - -
20/01:00am 21.2 ENE 3 7 999.2 - 0.0 - - - - - - -
20/12:30am 21.5 ENE 5 9 1000.1 - 0.0 - - - - - - -
20/12:00am 21.6 NE 4 9 1001.1 - 0.0 - - - - - - -
 
Date/Time
EDT
Temp
°C
Wind Pressure Rain since
9am
mm
Weather Cloud Vis
km
Sea
Height
m
Swell
Dir  Spd
kts
Gust
kts
hPa Trend Height
m
Period
s
Dir
19/11:30pm 20.7 E 1 5 1002.1 - 0.0 - - - - - - -
19/11:00pm 21.0 ENE 2 4 1002.9 - 0.0 - - - - - - -
19/10:30pm 20.4 E 2 4 1003.7 - 0.0 - - - - - - -
19/10:00pm 21.1 E 3 5 1004.1 - 0.0 - - - - - - -
19/09:30pm 21.3 E 4 7 1004.1 - 0.0 - - - - - - -
19/09:00pm 22.2 E 6 10 1004.6 - 0.0 - - - - - - -
19/08:30pm 22.9 E 7 12 1004.5 - 0.0 - - - - - - -
19/08:00pm 23.7 ESE 4 8 1004.6 - 0.0 - - - - - - -
19/07:30pm 25.0 ESE 5 7 1005.1 - 0.0 - - - - - - -
19/07:00pm 25.8 ESE 5 9 1005.5 - 0.0 - - - - - - -
19/06:30pm 25.0 SSE 4 7 1005.3 - 0.0 - - - - - - -
19/06:00pm 24.4 SSE 6 9 1005.7 - 0.0 - - - - - - -
19/05:30pm 24.0 SE 6 10 1006.4 - 0.0 - - - - - - -
19/05:00pm 23.6 SE 8 13 1007.1 - 0.0 - - - - - - -
19/04:30pm 23.7 SE 7 13 1007.9 - 0.0 - - - - - - -
19/04:00pm 23.0 SE 8 15 1008.6 - 0.0 - - - - - - -
19/03:30pm 22.6 SE 9 15 1009.3 - 0.0 - - - - - - -
19/03:00pm 22.2 SE 8 14 1009.9 - 0.0 - - - - - - -
19/02:30pm 22.9 SSE 9 17 1010.3 - 0.0 - - - - - - -
19/02:00pm 22.2 SSE 8 16 1010.6 - 0.0 - - - - - - -
19/01:30pm 21.6 SE 9 17 1011.3 - 0.0 - - - - - - -
19/01:00pm 21.7 SSE 8 14 1011.8 - 0.0 - - - - - - -
19/12:30pm 21.1 SE 8 15 1012.3 - 0.0 - - - - - - -
19/12:00pm 21.5 ESE 6 13 1012.8 - 0.0 - - - - - - -
19/11:30am 21.1 E 6 9 1013.2 - 0.0 - - - - - - -
19/11:00am - E 6 10 1013.7 - 0.0 - - - - - - -
19/10:30am - E 5 10 1014.1 - 0.0 - - - - - - -
19/10:00am - E 6 10 1014.5 - 0.0 - - - - - - -
19/09:30am - ESE 4 7 1014.9 - 0.0 - - - - - - -
19/09:00am - ENE 2 4 1015.4 - 0.0 - - - - - - -
19/08:30am - CALM 0 2 1015.5 - - - - - - - - -
19/08:00am - CALM 0 1 1015.6 - - - - - - - - -
19/07:30am 11.1 CALM 0 0 1015.7 - - - - - - - - -
19/07:00am 10.1 CALM 0 0 1015.6 - - - - - - - - -
19/06:30am 9.6 - - - 1015.4 - - - - - - - - -
19/06:00am 9.7 CALM 0 0 1015.3 - - - - - - - - -
19/05:30am 9.3 CALM 0 0 1015.2 - - - - - - - - -
19/05:00am 9.9 CALM 0 0 1015.3 - - - - - - - - -
19/04:30am 11.2 N 2 3 1015.1 - - - - - - - - -
19/04:00am 11.1 NNE 2 2 1015.2 - - - - - - - - -
19/03:30am - NNE 2 4 1015.5 - - - - - - - - -
19/03:00am - CALM 0 1 1015.8 - - - - - - - - -
19/02:30am 11.9 NNE 3 4 1016.1 - - - - - - - - -
19/02:00am 11.9 NNE 4 5 1016.4 - - - - - - - - -
19/01:30am 12.4 N 4 5 1016.6 - - - - - - - - -
19/01:00am 12.0 N 3 4 1016.8 - - - - - - - - -
19/12:30am 12.4 N 3 4 1017.0 - 0.0 - - - - - - -
19/12:00am 12.7 N 3 4 1017.2 - 0.0 - - - - - - -
 
Date/Time
EDT
Temp
°C
Wind Pressure Rain since
9am
mm
Weather Cloud Vis
km
Sea
Height
m
Swell
Dir  Spd
kts
Gust
kts
hPa Trend Height
m
Period
s
Dir
18/11:30pm 12.8 N 2 2 1017.5 - 0.0 - - - - - - -
18/11:00pm 13.2 N 2 2 1017.5 - 0.0 - - - - - - -
18/10:30pm 14.1 CALM 0 0 1017.4 - 0.0 - - - - - - -
18/10:00pm 14.7 CALM 0 2 1017.2 - 0.0 - - - - - - -
18/09:30pm 15.1 SSW 2 3 1016.9 - 0.0 - - - - - - -
18/09:00pm 15.7 S 3 6 1016.6 - 0.0 - - - - - - -
18/08:30pm 16.0 SSW 5 8 1016.2 - 0.0 - - - - - - -
18/08:00pm 16.7 SSW 7 12 1015.8 - 0.0 - - - - - - -
18/07:30pm 17.4 SSW 6 9 1015.1 - 0.0 - - - - - - -
18/07:00pm 18.1 SW 9 13 1015.0 - 0.0 - - - - - - -
18/06:30pm 18.7 SW 8 12 1014.7 - 0.0 - - - - - - -
18/06:00pm 18.6 SW 11 16 1014.5 - 0.0 - - - - - - -
18/05:30pm 18.2 SSW 10 17 1014.4 - 0.0 - - - - - - -
18/05:00pm 19.1 SSW 13 18 1014.2 - 0.0 - - - - - - -
18/04:30pm 18.7 SW 11 17 1014.3 - 0.0 - - - - - - -
18/04:00pm 20.6 SW 11 15 1014.2 - 0.0 - - - - - - -
18/03:30pm 18.4 SW 13 19 1014.2 - 0.0 - - - - - - -
18/03:00pm 18.8 SW 12 17 1014.0 - 0.0 - - - - - - -
18/02:30pm 18.3 SW 13 19 1014.0 - 0.0 - - - - - - -
18/02:00pm 18.3 SW 11 17 1013.7 - 0.0 - - - - - - -
18/01:30pm 17.9 SW 11 16 1013.6 - 0.0 - - - - - - -
18/01:00pm 17.8 SW 11 16 1013.3 - 0.0 - - - - - - -
18/12:30pm 17.9 SW 9 13 1013.2 - 0.0 - - - - - - -
18/12:00pm 17.7 SW 9 15 1012.8 - 0.0 - - - - - - -
18/11:30am 17.1 SW 13 18 1012.8 - 0.0 - - - - - - -

Other Formats:

Comma delimited format used in spreadsheet applications
http://www.bom.gov.au/fwo/IDV60701/IDV60701.95918.axf

JavaScript Object Notation format (JSON) in row-major order
http://www.bom.gov.au/fwo/IDV60701/IDV60701.95918.json